Alexandria, KY (41001)

5:42 AM EDT on August 28, 2015 (GMT -0400)
Claryville,KY | | Change Station
CLOSE
Current Station
Personal Weather Station
Location: Alexandria, KY
Elevation: 680 ft
Nearby Weather Stations

Elev 680 ft 38.91 °N, 84.41 °W | Updated 23 seconds ago

Clear
Clear
52.7 °F
Feels Like 52.7 °F
N
0.0
Wind Variable Wind from SW
Gusts 0.0 mph

Today
High -- | Low -- °F
--% Chance of Precip.
Yesterday
High -- | Low -- °F
Precip. -- in
7:02 AM 8:14 PM
Waxing Gibbous, 97% visible
Pressure 30.16 in
Visibility 3.0 miles
Clouds Clear
Dew Point 52 °F
Humidity 98%
Rainfall 0.00 in
Snow Depth Not available.
UV 0.0 out of 12
Pollen 10.30 out of 12
Air Quality Not available.
Flu Activity Not available.
SPECI KLUK 280928Z AUTO 02003KT 3SM R21L/1000V1400FT BR CLR 12/12 A3016 RMK AO2 T01220122
Pressure 30.16 in
Visibility 3.0 miles
Clouds Clear
Dew Point 52 °F
Humidity 98%
Rainfall 0.00 in
Snow Depth Not available.
UV 0.0 out of 12
Pollen 10.30 out of 12
Air Quality Not available.
Flu Activity Not available.
SPECI KLUK 280928Z AUTO 02003KT 3SM R21L/1000V1400FT BR CLR 12/12 A3016 RMK AO2 T01220122

10-Day Weather Forecast

×

Almanac

Astronomy

Aug. 28, 2015 Rise Set
Actual Time
Civil Twilight
Nautical Twilight
Astronomical Twilight
Moon
Length of Visible Light
Length of Day
Tomorrow will be .
, % of the Moon is Illuminated

Today's Extremes

State Highs State Lows

Community

WunderPhotos

Upload Photos

1,850,352 photos uploaded!

WunderBlogs® & News

Nearby

Air Quality

  Air Quality AQ Index Pollutant
Not available.

Snow Depth

Station Depth Elevation

Earthquake Activity

City Distance Mag. Time & Date
Minimum magnitude displayed is 2.5.

Coastal Water Temperatures

Place Temperature

Stations

Nearby Weather Stations

Station Location Temp. Windchill Dew Point Humidity Wind Precip. Elev Updated Type